sensor_id;sensor_type;location;lat;lon;timestamp;P1;durP1;ratioP1;P2;durP2;ratioP2
25127;SDS011;13107;51.304;6.866;2022-11-12T00:03:48;7.87;;;4.25;;
25127;SDS011;13107;51.304;6.866;2022-11-12T00:07:50;8.52;;;4.20;;
25127;SDS011;13107;51.304;6.866;2022-11-12T00:11:52;5.20;;;3.40;;
25127;SDS011;13107;51.304;6.866;2022-11-12T00:15:53;6.87;;;3.58;;
25127;SDS011;13107;51.304;6.866;2022-11-12T00:19:55;5.18;;;2.75;;
25127;SDS011;13107;51.304;6.866;2022-11-12T00:23:57;6.85;;;3.15;;
25127;SDS011;13107;51.304;6.866;2022-11-12T00:28:05;6.43;;;2.80;;
25127;SDS011;13107;51.304;6.866;2022-11-12T00:32:08;7.75;;;2.70;;
25127;SDS011;13107;51.304;6.866;2022-11-12T00:36:10;4.55;;;2.50;;
25127;SDS011;13107;51.304;6.866;2022-11-12T00:40:12;4.72;;;3.08;;
25127;SDS011;13107;51.304;6.866;2022-11-12T00:44:13;7.07;;;2.53;;
25127;SDS011;13107;51.304;6.866;2022-11-12T00:48:15;11.60;;;3.17;;
25127;SDS011;13107;51.304;6.866;2022-11-12T00:52:17;4.50;;;3.15;;
25127;SDS011;13107;51.304;6.866;2022-11-12T00:56:19;7.22;;;2.97;;
25127;SDS011;13107;51.304;6.866;2022-11-12T01:00:20;5.85;;;2.90;;
25127;SDS011;13107;51.304;6.866;2022-11-12T01:04:22;4.60;;;2.55;;
25127;SDS011;13107;51.304;6.866;2022-11-12T01:08:24;6.15;;;2.47;;
25127;SDS011;13107;51.304;6.866;2022-11-12T01:12:26;5.50;;;2.80;;
25127;SDS011;13107;51.304;6.866;2022-11-12T01:16:33;6.85;;;3.10;;
25127;SDS011;13107;51.304;6.866;2022-11-12T01:20:37;5.87;;;2.87;;
25127;SDS011;13107;51.304;6.866;2022-11-12T01:24:39;6.05;;;3.20;;
25127;SDS011;13107;51.304;6.866;2022-11-12T01:28:41;6.32;;;2.60;;
25127;SDS011;13107;51.304;6.866;2022-11-12T01:32:43;4.43;;;2.72;;
25127;SDS011;13107;51.304;6.866;2022-11-12T01:36:45;5.97;;;3.20;;
25127;SDS011;13107;51.304;6.866;2022-11-12T01:40:46;5.68;;;2.60;;
25127;SDS011;13107;51.304;6.866;2022-11-12T01:44:50;6.90;;;3.10;;
25127;SDS011;13107;51.304;6.866;2022-11-12T01:48:55;4.68;;;2.75;;
25127;SDS011;13107;51.304;6.866;2022-11-12T01:53:01;3.78;;;2.53;;
25127;SDS011;13107;51.304;6.866;2022-11-12T01:57:08;5.12;;;2.70;;
25127;SDS011;13107;51.304;6.866;2022-11-12T02:01:12;4.68;;;2.87;;
25127;SDS011;13107;51.304;6.866;2022-11-12T02:05:14;4.05;;;2.17;;
25127;SDS011;13107;51.304;6.866;2022-11-12T02:09:17;3.37;;;2.58;;
25127;SDS011;13107;51.304;6.866;2022-11-12T02:13:19;4.55;;;2.62;;
25127;SDS011;13107;51.304;6.866;2022-11-12T02:17:40;5.78;;;2.83;;
25127;SDS011;13107;51.304;6.866;2022-11-12T02:21:41;5.80;;;2.47;;
25127;SDS011;13107;51.304;6.866;2022-11-12T02:25:43;7.10;;;2.67;;
25127;SDS011;13107;51.304;6.866;2022-11-12T02:29:45;5.82;;;3.17;;
25127;SDS011;13107;51.304;6.866;2022-11-12T02:33:47;4.47;;;2.95;;
25127;SDS011;13107;51.304;6.866;2022-11-12T02:37:48;4.68;;;2.60;;
25127;SDS011;13107;51.304;6.866;2022-11-12T02:41:50;7.57;;;3.10;;
25127;SDS011;13107;51.304;6.866;2022-11-12T02:45:52;7.18;;;3.30;;
25127;SDS011;13107;51.304;6.866;2022-11-12T02:49:53;7.05;;;3.15;;
25127;SDS011;13107;51.304;6.866;2022-11-12T02:53:55;3.90;;;2.47;;
25127;SDS011;13107;51.304;6.866;2022-11-12T02:57:57;6.22;;;2.87;;
25127;SDS011;13107;51.304;6.866;2022-11-12T03:01:59;5.60;;;2.80;;
25127;SDS011;13107;51.304;6.866;2022-11-12T03:06:01;5.30;;;2.80;;
25127;SDS011;13107;51.304;6.866;2022-11-12T03:10:03;4.37;;;2.78;;
25127;SDS011;13107;51.304;6.866;2022-11-12T03:14:05;11.32;;;3.00;;
25127;SDS011;13107;51.304;6.866;2022-11-12T03:18:07;3.90;;;2.60;;
25127;SDS011;13107;51.304;6.866;2022-11-12T03:22:09;9.00;;;2.97;;
25127;SDS011;13107;51.304;6.866;2022-11-12T03:26:10;4.95;;;2.95;;
25127;SDS011;13107;51.304;6.866;2022-11-12T03:30:12;6.72;;;2.58;;
25127;SDS011;13107;51.304;6.866;2022-11-12T03:34:14;7.60;;;2.97;;
25127;SDS011;13107;51.304;6.866;2022-11-12T03:38:15;9.60;;;2.83;;
25127;SDS011;13107;51.304;6.866;2022-11-12T03:42:17;6.07;;;3.17;;
25127;SDS011;13107;51.304;6.866;2022-11-12T03:46:18;6.12;;;3.15;;
25127;SDS011;13107;51.304;6.866;2022-11-12T03:50:21;6.90;;;3.05;;
25127;SDS011;13107;51.304;6.866;2022-11-12T03:54:25;5.25;;;2.80;;
25127;SDS011;13107;51.304;6.866;2022-11-12T03:58:27;4.43;;;3.08;;
25127;SDS011;13107;51.304;6.866;2022-11-12T04:02:29;7.55;;;3.47;;
25127;SDS011;13107;51.304;6.866;2022-11-12T04:06:31;7.05;;;2.60;;
25127;SDS011;13107;51.304;6.866;2022-11-12T04:10:51;6.30;;;3.30;;
25127;SDS011;13107;51.304;6.866;2022-11-12T04:14:53;6.43;;;3.03;;
25127;SDS011;13107;51.304;6.866;2022-11-12T04:18:56;4.45;;;3.15;;
25127;SDS011;13107;51.304;6.866;2022-11-12T04:23:17;7.18;;;3.10;;
25127;SDS011;13107;51.304;6.866;2022-11-12T04:27:29;5.30;;;2.85;;
25127;SDS011;13107;51.304;6.866;2022-11-12T04:31:32;6.47;;;2.80;;
25127;SDS011;13107;51.304;6.866;2022-11-12T04:35:34;5.50;;;2.72;;
25127;SDS011;13107;51.304;6.866;2022-11-12T04:39:36;6.65;;;2.87;;
25127;SDS011;13107;51.304;6.866;2022-11-12T04:43:37;4.53;;;2.83;;
25127;SDS011;13107;51.304;6.866;2022-11-12T04:47:58;5.18;;;3.20;;
25127;SDS011;13107;51.304;6.866;2022-11-12T04:52:00;8.43;;;2.92;;
25127;SDS011;13107;51.304;6.866;2022-11-12T04:56:07;5.62;;;3.30;;
25127;SDS011;13107;51.304;6.866;2022-11-12T05:00:09;6.12;;;2.95;;
25127;SDS011;13107;51.304;6.866;2022-11-12T05:04:11;6.18;;;2.78;;
25127;SDS011;13107;51.304;6.866;2022-11-12T05:08:13;6.62;;;2.95;;
25127;SDS011;13107;51.304;6.866;2022-11-12T05:12:15;5.75;;;2.85;;
25127;SDS011;13107;51.304;6.866;2022-11-12T05:16:16;6.37;;;2.72;;
25127;SDS011;13107;51.304;6.866;2022-11-12T05:20:18;4.62;;;2.60;;
25127;SDS011;13107;51.304;6.866;2022-11-12T05:24:20;4.43;;;2.97;;
25127;SDS011;13107;51.304;6.866;2022-11-12T05:28:41;4.18;;;2.80;;
25127;SDS011;13107;51.304;6.866;2022-11-12T05:32:43;3.95;;;2.65;;
25127;SDS011;13107;51.304;6.866;2022-11-12T05:36:44;5.95;;;2.87;;
25127;SDS011;13107;51.304;6.866;2022-11-12T05:40:46;5.78;;;2.78;;
25127;SDS011;13107;51.304;6.866;2022-11-12T05:44:48;4.07;;;2.80;;
25127;SDS011;13107;51.304;6.866;2022-11-12T05:48:49;7.78;;;2.87;;
25127;SDS011;13107;51.304;6.866;2022-11-12T05:52:51;5.57;;;3.50;;
25127;SDS011;13107;51.304;6.866;2022-11-12T05:56:53;4.93;;;2.47;;
25127;SDS011;13107;51.304;6.866;2022-11-12T06:00:54;7.80;;;2.80;;
25127;SDS011;13107;51.304;6.866;2022-11-12T06:04:56;5.87;;;2.87;;
25127;SDS011;13107;51.304;6.866;2022-11-12T06:08:58;4.65;;;2.60;;
25127;SDS011;13107;51.304;6.866;2022-11-12T06:12:59;4.65;;;2.78;;
25127;SDS011;13107;51.304;6.866;2022-11-12T06:17:01;3.58;;;2.80;;
25127;SDS011;13107;51.304;6.866;2022-11-12T06:21:07;8.05;;;3.10;;
25127;SDS011;13107;51.304;6.866;2022-11-12T06:25:19;4.22;;;2.47;;
25127;SDS011;13107;51.304;6.866;2022-11-12T06:29:21;5.45;;;3.12;;
25127;SDS011;13107;51.304;6.866;2022-11-12T06:33:22;5.40;;;2.70;;
25127;SDS011;13107;51.304;6.866;2022-11-12T06:37:24;5.60;;;2.55;;
25127;SDS011;13107;51.304;6.866;2022-11-12T06:41:26;4.53;;;2.60;;
25127;SDS011;13107;51.304;6.866;2022-11-12T06:45:27;5.65;;;3.20;;
25127;SDS011;13107;51.304;6.866;2022-11-12T06:49:29;5.05;;;3.10;;
25127;SDS011;13107;51.304;6.866;2022-11-12T06:53:31;4.55;;;2.62;;
25127;SDS011;13107;51.304;6.866;2022-11-12T06:57:33;6.55;;;3.30;;
25127;SDS011;13107;51.304;6.866;2022-11-12T07:01:34;6.60;;;3.35;;
25127;SDS011;13107;51.304;6.866;2022-11-12T07:05:37;7.45;;;3.50;;
25127;SDS011;13107;51.304;6.866;2022-11-12T07:09:39;6.75;;;3.15;;
25127;SDS011;13107;51.304;6.866;2022-11-12T07:13:41;7.47;;;3.28;;
25127;SDS011;13107;51.304;6.866;2022-11-12T07:17:45;7.57;;;3.60;;
25127;SDS011;13107;51.304;6.866;2022-11-12T07:21:46;7.82;;;3.42;;
25127;SDS011;13107;51.304;6.866;2022-11-12T07:26:09;7.78;;;4.65;;
25127;SDS011;13107;51.304;6.866;2022-11-12T07:30:21;7.62;;;4.53;;
25127;SDS011;13107;51.304;6.866;2022-11-12T07:34:22;8.00;;;4.15;;
25127;SDS011;13107;51.304;6.866;2022-11-12T07:38:25;6.93;;;4.10;;
25127;SDS011;13107;51.304;6.866;2022-11-12T07:42:28;6.40;;;3.50;;
25127;SDS011;13107;51.304;6.866;2022-11-12T07:46:32;8.77;;;4.07;;
25127;SDS011;13107;51.304;6.866;2022-11-12T07:50:34;7.28;;;3.97;;
25127;SDS011;13107;51.304;6.866;2022-11-12T07:54:35;9.32;;;4.68;;
25127;SDS011;13107;51.304;6.866;2022-11-12T07:58:37;6.32;;;3.25;;
25127;SDS011;13107;51.304;6.866;2022-11-12T08:02:39;4.95;;;3.00;;
25127;SDS011;13107;51.304;6.866;2022-11-12T08:06:40;5.47;;;3.17;;
25127;SDS011;13107;51.304;6.866;2022-11-12T08:10:43;7.20;;;3.30;;
25127;SDS011;13107;51.304;6.866;2022-11-12T08:14:44;7.95;;;3.37;;
25127;SDS011;13107;51.304;6.866;2022-11-12T08:18:46;4.82;;;3.33;;
25127;SDS011;13107;51.304;6.866;2022-11-12T08:22:48;8.57;;;3.30;;
25127;SDS011;13107;51.304;6.866;2022-11-12T08:26:50;5.45;;;3.00;;
25127;SDS011;13107;51.304;6.866;2022-11-12T08:30:51;6.87;;;3.67;;
25127;SDS011;13107;51.304;6.866;2022-11-12T08:34:53;6.93;;;4.75;;
25127;SDS011;13107;51.304;6.866;2022-11-12T08:38:55;20.02;;;13.07;;
25127;SDS011;13107;51.304;6.866;2022-11-12T08:47:02;25.73;;;14.25;;
25127;SDS011;13107;51.304;6.866;2022-11-12T08:51:04;16.95;;;10.70;;
25127;SDS011;13107;51.304;6.866;2022-11-12T08:55:07;13.50;;;6.97;;
25127;SDS011;13107;51.304;6.866;2022-11-12T08:59:09;8.23;;;4.72;;
25127;SDS011;13107;51.304;6.866;2022-11-12T09:03:12;4.03;;;2.40;;
25127;SDS011;13107;51.304;6.866;2022-11-12T09:07:15;4.25;;;2.50;;
25127;SDS011;13107;51.304;6.866;2022-11-12T09:11:37;5.37;;;2.05;;
25127;SDS011;13107;51.304;6.866;2022-11-12T09:15:39;5.25;;;2.55;;
25127;SDS011;13107;51.304;6.866;2022-11-12T09:19:41;4.82;;;1.58;;
25127;SDS011;13107;51.304;6.866;2022-11-12T09:23:43;3.92;;;2.00;;
25127;SDS011;13107;51.304;6.866;2022-11-12T09:27:45;3.17;;;1.65;;
25127;SDS011;13107;51.304;6.866;2022-11-12T09:31:49;5.45;;;1.87;;
25127;SDS011;13107;51.304;6.866;2022-11-12T09:35:51;3.30;;;1.80;;
25127;SDS011;13107;51.304;6.866;2022-11-12T09:39:54;3.70;;;1.40;;
25127;SDS011;13107;51.304;6.866;2022-11-12T09:44:00;4.82;;;1.90;;
25127;SDS011;13107;51.304;6.866;2022-11-12T09:48:05;2.58;;;1.62;;
25127;SDS011;13107;51.304;6.866;2022-11-12T09:52:17;2.83;;;1.25;;
25127;SDS011;13107;51.304;6.866;2022-11-12T09:56:23;5.45;;;1.67;;
25127;SDS011;13107;51.304;6.866;2022-11-12T10:00:26;3.20;;;1.60;;
25127;SDS011;13107;51.304;6.866;2022-11-12T10:08:38;2.40;;;1.60;;
25127;SDS011;13107;51.304;6.866;2022-11-12T10:17:41;6.97;;;2.03;;
25127;SDS011;13107;51.304;6.866;2022-11-12T10:21:56;4.97;;;1.95;;
25127;SDS011;13107;51.304;6.866;2022-11-12T10:26:18;4.03;;;1.80;;
25127;SDS011;13107;51.304;6.866;2022-11-12T10:30:22;7.50;;;4.62;;
25127;SDS011;13107;51.304;6.866;2022-11-12T10:34:25;4.50;;;2.20;;
25127;SDS011;13107;51.304;6.866;2022-11-12T10:38:27;3.22;;;1.83;;
25127;SDS011;13107;51.304;6.866;2022-11-12T10:42:29;4.25;;;2.30;;
25127;SDS011;13107;51.304;6.866;2022-11-12T10:46:32;3.83;;;2.05;;
25127;SDS011;13107;51.304;6.866;2022-11-12T10:50:39;3.15;;;2.20;;
25127;SDS011;13107;51.304;6.866;2022-11-12T10:54:43;3.95;;;2.22;;
25127;SDS011;13107;51.304;6.866;2022-11-12T10:58:45;3.28;;;2.00;;
25127;SDS011;13107;51.304;6.866;2022-11-12T11:02:47;3.70;;;1.98;;
25127;SDS011;13107;51.304;6.866;2022-11-12T11:07:02;4.97;;;1.85;;
25127;SDS011;13107;51.304;6.866;2022-11-12T11:11:12;3.20;;;1.92;;
25127;SDS011;13107;51.304;6.866;2022-11-12T11:15:29;4.10;;;2.35;;
25127;SDS011;13107;51.304;6.866;2022-11-12T11:19:32;3.72;;;2.35;;
25127;SDS011;13107;51.304;6.866;2022-11-12T11:23:48;4.75;;;1.77;;
25127;SDS011;13107;51.304;6.866;2022-11-12T11:27:55;4.65;;;2.20;;
25127;SDS011;13107;51.304;6.866;2022-11-12T11:32:33;4.15;;;2.08;;
25127;SDS011;13107;51.304;6.866;2022-11-12T11:37:03;3.92;;;1.70;;
25127;SDS011;13107;51.304;6.866;2022-11-12T11:53:53;3.97;;;1.50;;
25127;SDS011;13107;51.304;6.866;2022-11-12T12:07:11;2.45;;;1.37;;
25127;SDS011;13107;51.304;6.866;2022-11-12T12:11:34;3.40;;;1.60;;
25127;SDS011;13107;51.304;6.866;2022-11-12T12:20:33;3.33;;;1.53;;
25127;SDS011;13107;51.304;6.866;2022-11-12T12:24:55;4.28;;;1.48;;
25127;SDS011;13107;51.304;6.866;2022-11-12T12:29:02;2.55;;;1.40;;
25127;SDS011;13107;51.304;6.866;2022-11-12T12:33:28;3.58;;;1.37;;
25127;SDS011;13107;51.304;6.866;2022-11-12T12:46:23;3.80;;;1.50;;
25127;SDS011;13107;51.304;6.866;2022-11-12T12:50:27;1.87;;;1.33;;
25127;SDS011;13107;51.304;6.866;2022-11-12T12:58:44;3.65;;;1.77;;
25127;SDS011;13107;51.304;6.866;2022-11-12T13:02:47;4.85;;;1.65;;
25127;SDS011;13107;51.304;6.866;2022-11-12T13:10:50;3.12;;;1.35;;
25127;SDS011;13107;51.304;6.866;2022-11-12T13:15:06;3.05;;;1.80;;
25127;SDS011;13107;51.304;6.866;2022-11-12T13:19:24;3.50;;;1.67;;
25127;SDS011;13107;51.304;6.866;2022-11-12T13:23:41;2.75;;;1.48;;
25127;SDS011;13107;51.304;6.866;2022-11-12T13:28:09;3.15;;;1.20;;
25127;SDS011;13107;51.304;6.866;2022-11-12T13:36:31;2.67;;;1.33;;
25127;SDS011;13107;51.304;6.866;2022-11-12T13:40:51;1.85;;;1.17;;
25127;SDS011;13107;51.304;6.866;2022-11-12T13:45:20;3.22;;;1.30;;
25127;SDS011;13107;51.304;6.866;2022-11-12T13:49:25;1.92;;;1.30;;
25127;SDS011;13107;51.304;6.866;2022-11-12T13:53:27;3.22;;;1.50;;
25127;SDS011;13107;51.304;6.866;2022-11-12T13:57:33;4.12;;;1.50;;
25127;SDS011;13107;51.304;6.866;2022-11-12T14:01:34;2.33;;;1.55;;
25127;SDS011;13107;51.304;6.866;2022-11-12T14:05:36;5.22;;;1.65;;
25127;SDS011;13107;51.304;6.866;2022-11-12T14:18:21;3.12;;;1.50;;
25127;SDS011;13107;51.304;6.866;2022-11-12T14:22:39;2.97;;;1.40;;
25127;SDS011;13107;51.304;6.866;2022-11-12T14:26:42;2.42;;;1.40;;
25127;SDS011;13107;51.304;6.866;2022-11-12T14:30:44;2.72;;;1.30;;
25127;SDS011;13107;51.304;6.866;2022-11-12T14:34:46;2.87;;;1.50;;
25127;SDS011;13107;51.304;6.866;2022-11-12T14:38:51;2.42;;;1.40;;
25127;SDS011;13107;51.304;6.866;2022-11-12T14:42:56;2.47;;;1.37;;
25127;SDS011;13107;51.304;6.866;2022-11-12T14:46:57;5.30;;;1.52;;
25127;SDS011;13107;51.304;6.866;2022-11-12T14:51:02;2.62;;;1.42;;
25127;SDS011;13107;51.304;6.866;2022-11-12T14:55:09;3.72;;;1.48;;
25127;SDS011;13107;51.304;6.866;2022-11-12T14:59:14;3.05;;;1.27;;
25127;SDS011;13107;51.304;6.866;2022-11-12T15:03:18;3.35;;;1.52;;
25127;SDS011;13107;51.304;6.866;2022-11-12T15:11:29;2.28;;;1.55;;
25127;SDS011;13107;51.304;6.866;2022-11-12T15:16:03;4.22;;;1.80;;
25127;SDS011;13107;51.304;6.866;2022-11-12T15:20:11;3.60;;;1.77;;
25127;SDS011;13107;51.304;6.866;2022-11-12T15:24:17;4.45;;;2.08;;
25127;SDS011;13107;51.304;6.866;2022-11-12T15:28:27;4.97;;;2.05;;
25127;SDS011;13107;51.304;6.866;2022-11-12T15:32:30;4.90;;;2.03;;
25127;SDS011;13107;51.304;6.866;2022-11-12T15:36:33;9.52;;;5.78;;
25127;SDS011;13107;51.304;6.866;2022-11-12T15:40:42;30.02;;;22.80;;
25127;SDS011;13107;51.304;6.866;2022-11-12T15:44:46;6.25;;;5.00;;
25127;SDS011;13107;51.304;6.866;2022-11-12T15:48:48;4.12;;;3.25;;
25127;SDS011;13107;51.304;6.866;2022-11-12T15:52:56;3.90;;;2.78;;
25127;SDS011;13107;51.304;6.866;2022-11-12T15:56:58;5.00;;;2.40;;
25127;SDS011;13107;51.304;6.866;2022-11-12T16:01:00;4.12;;;2.17;;
25127;SDS011;13107;51.304;6.866;2022-11-12T16:05:03;4.15;;;1.80;;
25127;SDS011;13107;51.304;6.866;2022-11-12T16:09:05;3.33;;;1.75;;
25127;SDS011;13107;51.304;6.866;2022-11-12T16:13:13;5.18;;;1.85;;
25127;SDS011;13107;51.304;6.866;2022-11-12T16:17:27;4.95;;;1.98;;
25127;SDS011;13107;51.304;6.866;2022-11-12T16:21:30;5.10;;;2.12;;
25127;SDS011;13107;51.304;6.866;2022-11-12T16:25:32;4.25;;;2.40;;
25127;SDS011;13107;51.304;6.866;2022-11-12T16:29:36;4.50;;;2.85;;
25127;SDS011;13107;51.304;6.866;2022-11-12T16:33:38;9.90;;;2.75;;
25127;SDS011;13107;51.304;6.866;2022-11-12T16:37:40;5.90;;;3.00;;
25127;SDS011;13107;51.304;6.866;2022-11-12T16:41:43;6.85;;;3.53;;
25127;SDS011;13107;51.304;6.866;2022-11-12T16:45:45;6.15;;;3.40;;
25127;SDS011;13107;51.304;6.866;2022-11-12T16:49:46;7.22;;;3.10;;
25127;SDS011;13107;51.304;6.866;2022-11-12T16:53:48;4.25;;;3.03;;
25127;SDS011;13107;51.304;6.866;2022-11-12T16:57:50;6.85;;;3.62;;
25127;SDS011;13107;51.304;6.866;2022-11-12T17:01:51;5.00;;;3.10;;
25127;SDS011;13107;51.304;6.866;2022-11-12T17:05:53;6.12;;;2.62;;
25127;SDS011;13107;51.304;6.866;2022-11-12T17:09:55;4.75;;;2.87;;
25127;SDS011;13107;51.304;6.866;2022-11-12T17:13:58;7.00;;;2.95;;
25127;SDS011;13107;51.304;6.866;2022-11-12T17:18:03;8.00;;;6.87;;
25127;SDS011;13107;51.304;6.866;2022-11-12T17:22:05;6.55;;;4.60;;
25127;SDS011;13107;51.304;6.866;2022-11-12T17:26:11;5.82;;;3.62;;
25127;SDS011;13107;51.304;6.866;2022-11-12T17:30:15;5.70;;;3.17;;
25127;SDS011;13107;51.304;6.866;2022-11-12T17:34:17;4.72;;;2.87;;
25127;SDS011;13107;51.304;6.866;2022-11-12T17:38:19;4.68;;;2.80;;
25127;SDS011;13107;51.304;6.866;2022-11-12T17:42:20;6.35;;;3.97;;
25127;SDS011;13107;51.304;6.866;2022-11-12T17:46:22;4.90;;;2.83;;
25127;SDS011;13107;51.304;6.866;2022-11-12T17:50:24;13.13;;;9.10;;
25127;SDS011;13107;51.304;6.866;2022-11-12T17:54:26;14.30;;;8.05;;
25127;SDS011;13107;51.304;6.866;2022-11-12T17:58:28;4.85;;;2.60;;
25127;SDS011;13107;51.304;6.866;2022-11-12T18:02:29;5.12;;;2.00;;
25127;SDS011;13107;51.304;6.866;2022-11-12T18:06:31;6.32;;;2.50;;
25127;SDS011;13107;51.304;6.866;2022-11-12T18:10:34;3.85;;;2.15;;
25127;SDS011;13107;51.304;6.866;2022-11-12T18:14:36;4.12;;;2.30;;
25127;SDS011;13107;51.304;6.866;2022-11-12T18:18:38;9.75;;;2.17;;
25127;SDS011;13107;51.304;6.866;2022-11-12T18:22:39;4.55;;;2.75;;
25127;SDS011;13107;51.304;6.866;2022-11-12T18:26:45;4.72;;;2.60;;
25127;SDS011;13107;51.304;6.866;2022-11-12T18:30:47;6.78;;;2.80;;
25127;SDS011;13107;51.304;6.866;2022-11-12T18:34:48;5.78;;;2.40;;
25127;SDS011;13107;51.304;6.866;2022-11-12T18:38:54;3.58;;;2.42;;
25127;SDS011;13107;51.304;6.866;2022-11-12T18:42:56;4.87;;;3.03;;
25127;SDS011;13107;51.304;6.866;2022-11-12T18:46:57;8.75;;;3.40;;
25127;SDS011;13107;51.304;6.866;2022-11-12T18:51:03;5.15;;;3.08;;
25127;SDS011;13107;51.304;6.866;2022-11-12T18:55:07;4.32;;;2.62;;
25127;SDS011;13107;51.304;6.866;2022-11-12T18:59:09;6.85;;;2.65;;
25127;SDS011;13107;51.304;6.866;2022-11-12T19:03:13;4.20;;;2.45;;
25127;SDS011;13107;51.304;6.866;2022-11-12T19:07:15;5.87;;;2.80;;
25127;SDS011;13107;51.304;6.866;2022-11-12T19:11:17;3.40;;;2.30;;
25127;SDS011;13107;51.304;6.866;2022-11-12T19:15:21;4.90;;;2.72;;
25127;SDS011;13107;51.304;6.866;2022-11-12T19:19:27;6.90;;;2.70;;
25127;SDS011;13107;51.304;6.866;2022-11-12T19:23:29;6.05;;;3.15;;
25127;SDS011;13107;51.304;6.866;2022-11-12T19:27:30;6.00;;;3.08;;
25127;SDS011;13107;51.304;6.866;2022-11-12T19:31:32;6.97;;;3.83;;
25127;SDS011;13107;51.304;6.866;2022-11-12T19:35:34;5.53;;;3.62;;
25127;SDS011;13107;51.304;6.866;2022-11-12T19:39:39;5.70;;;3.60;;
25127;SDS011;13107;51.304;6.866;2022-11-12T19:43:40;5.80;;;3.50;;
25127;SDS011;13107;51.304;6.866;2022-11-12T19:47:42;7.72;;;3.67;;
25127;SDS011;13107;51.304;6.866;2022-11-12T19:51:44;6.57;;;3.47;;
25127;SDS011;13107;51.304;6.866;2022-11-12T19:55:46;7.32;;;4.10;;
25127;SDS011;13107;51.304;6.866;2022-11-12T19:59:47;7.78;;;3.75;;
25127;SDS011;13107;51.304;6.866;2022-11-12T20:03:49;8.40;;;3.83;;
25127;SDS011;13107;51.304;6.866;2022-11-12T20:07:51;8.05;;;4.90;;
25127;SDS011;13107;51.304;6.866;2022-11-12T20:11:52;9.27;;;4.72;;
25127;SDS011;13107;51.304;6.866;2022-11-12T20:15:54;6.90;;;4.53;;
25127;SDS011;13107;51.304;6.866;2022-11-12T20:19:56;6.10;;;4.05;;
25127;SDS011;13107;51.304;6.866;2022-11-12T20:23:59;8.40;;;5.00;;
25127;SDS011;13107;51.304;6.866;2022-11-12T20:28:00;8.90;;;4.97;;
25127;SDS011;13107;51.304;6.866;2022-11-12T20:32:02;7.70;;;4.37;;
25127;SDS011;13107;51.304;6.866;2022-11-12T20:36:05;8.35;;;4.53;;
25127;SDS011;13107;51.304;6.866;2022-11-12T20:40:12;8.63;;;3.55;;
25127;SDS011;13107;51.304;6.866;2022-11-12T20:44:13;9.65;;;3.97;;
25127;SDS011;13107;51.304;6.866;2022-11-12T20:48:16;7.28;;;3.85;;
25127;SDS011;13107;51.304;6.866;2022-11-12T20:52:20;7.05;;;3.12;;
25127;SDS011;13107;51.304;6.866;2022-11-12T20:56:23;6.50;;;3.67;;
25127;SDS011;13107;51.304;6.866;2022-11-12T21:00:25;4.82;;;3.40;;
25127;SDS011;13107;51.304;6.866;2022-11-12T21:04:27;5.53;;;3.40;;
25127;SDS011;13107;51.304;6.866;2022-11-12T21:08:29;6.70;;;3.35;;
25127;SDS011;13107;51.304;6.866;2022-11-12T21:12:32;5.47;;;3.40;;
25127;SDS011;13107;51.304;6.866;2022-11-12T21:16:33;6.03;;;3.92;;
25127;SDS011;13107;51.304;6.866;2022-11-12T21:20:35;8.73;;;4.07;;
25127;SDS011;13107;51.304;6.866;2022-11-12T21:24:37;7.50;;;4.30;;
25127;SDS011;13107;51.304;6.866;2022-11-12T21:28:57;6.05;;;4.18;;
25127;SDS011;13107;51.304;6.866;2022-11-12T21:32:58;7.40;;;4.10;;
25127;SDS011;13107;51.304;6.866;2022-11-12T21:37:00;7.47;;;4.50;;
25127;SDS011;13107;51.304;6.866;2022-11-12T21:45:08;11.18;;;4.95;;
25127;SDS011;13107;51.304;6.866;2022-11-12T21:49:10;8.07;;;4.50;;
25127;SDS011;13107;51.304;6.866;2022-11-12T21:53:13;11.30;;;5.05;;
25127;SDS011;13107;51.304;6.866;2022-11-12T21:57:15;12.13;;;5.32;;
25127;SDS011;13107;51.304;6.866;2022-11-12T22:01:20;7.78;;;4.32;;
25127;SDS011;13107;51.304;6.866;2022-11-12T22:05:25;7.80;;;4.68;;
25127;SDS011;13107;51.304;6.866;2022-11-12T22:09:26;8.73;;;5.18;;
25127;SDS011;13107;51.304;6.866;2022-11-12T22:13:28;9.85;;;5.50;;
25127;SDS011;13107;51.304;6.866;2022-11-12T22:17:33;8.95;;;4.72;;
25127;SDS011;13107;51.304;6.866;2022-11-12T22:21:35;8.90;;;5.35;;
25127;SDS011;13107;51.304;6.866;2022-11-12T22:25:40;8.65;;;5.43;;
25127;SDS011;13107;51.304;6.866;2022-11-12T22:29:42;10.18;;;5.75;;
25127;SDS011;13107;51.304;6.866;2022-11-12T22:33:43;11.00;;;6.28;;
25127;SDS011;13107;51.304;6.866;2022-11-12T22:37:45;11.73;;;6.72;;
25127;SDS011;13107;51.304;6.866;2022-11-12T22:41:47;10.40;;;6.50;;
25127;SDS011;13107;51.304;6.866;2022-11-12T22:45:49;8.05;;;5.43;;
25127;SDS011;13107;51.304;6.866;2022-11-12T22:49:50;9.57;;;5.60;;
25127;SDS011;13107;51.304;6.866;2022-11-12T22:53:52;13.40;;;5.93;;
25127;SDS011;13107;51.304;6.866;2022-11-12T22:57:58;11.68;;;5.72;;
25127;SDS011;13107;51.304;6.866;2022-11-12T23:02:00;8.80;;;6.32;;
25127;SDS011;13107;51.304;6.866;2022-11-12T23:06:03;11.02;;;6.12;;
25127;SDS011;13107;51.304;6.866;2022-11-12T23:10:06;11.68;;;6.20;;
25127;SDS011;13107;51.304;6.866;2022-11-12T23:14:08;12.32;;;6.22;;
25127;SDS011;13107;51.304;6.866;2022-11-12T23:18:10;11.20;;;6.03;;
25127;SDS011;13107;51.304;6.866;2022-11-12T23:22:12;9.35;;;6.30;;
25127;SDS011;13107;51.304;6.866;2022-11-12T23:26:17;15.55;;;6.78;;
25127;SDS011;13107;51.304;6.866;2022-11-12T23:30:19;12.75;;;7.20;;
25127;SDS011;13107;51.304;6.866;2022-11-12T23:34:20;10.00;;;6.93;;
25127;SDS011;13107;51.304;6.866;2022-11-12T23:38:22;10.60;;;5.93;;
25127;SDS011;13107;51.304;6.866;2022-11-12T23:42:24;13.98;;;6.12;;
25127;SDS011;13107;51.304;6.866;2022-11-12T23:46:25;9.57;;;5.97;;
25127;SDS011;13107;51.304;6.866;2022-11-12T23:50:27;10.85;;;5.97;;
25127;SDS011;13107;51.304;6.866;2022-11-12T23:54:29;9.45;;;5.87;;
25127;SDS011;13107;51.304;6.866;2022-11-12T23:58:30;9.30;;;5.80;;
